Time;durP1;ratioP1;P1;durP2;ratioP2;P2;SDS_P1;SDS_P2;PMS_P1;PMS_P2;Temp;Humidity;BMP_temperature;BMP_pressure;BME280_temperature;BME280_humidity;BME280_pressure;Samples;Min_cycle;Max_cycle;Signal;HPM_P1;HPM_P2
2023/06/17 00:01:30;;;;;;;5.65;3.88;;;;;;;;;;5016672;28;20033;-67
2023/06/17 00:03:55;;;;;;;5.43;3.75;;;;;;;;;;5003021;28;20037;-66
2023/06/17 00:06:21;;;;;;;7.55;4.35;;;;;;;;;;5016412;28;20045;-66
2023/06/17 00:08:46;;;;;;;5.72;4.10;;;;;;;;;;5014089;28;20029;-66
2023/06/17 00:11:12;;;;;;;6.30;3.90;;;;;;;;;;5017036;28;20058;-66
2023/06/17 00:13:38;;;;;;;8.35;4.10;;;;;;;;;;5017692;28;20112;-66
2023/06/17 00:16:05;;;;;;;14.60;4.95;;;;;;;;;;5019871;28;20048;-66
2023/06/17 00:18:32;;;;;;;4.18;3.67;;;;;;;;;;5008784;28;20040;-66
2023/06/17 00:20:58;;;;;;;6.13;3.70;;;;;;;;;;5020970;28;20542;-66
2023/06/17 00:23:23;;;;;;;5.10;4.00;;;;;;;;;;5022348;28;20112;-67
2023/06/17 00:25:49;;;;;;;6.28;3.92;;;;;;;;;;5020956;28;20053;-66
2023/06/17 00:28:15;;;;;;;12.45;4.20;;;;;;;;;;5024041;28;20040;-66
2023/06/17 00:30:40;;;;;;;6.45;4.15;;;;;;;;;;5006549;28;20530;-66
2023/06/17 00:33:06;;;;;;;8.35;4.00;;;;;;;;;;5007156;28;20033;-66
2023/06/17 00:35:32;;;;;;;9.40;4.47;;;;;;;;;;5019893;28;20048;-66
2023/06/17 00:37:58;;;;;;;9.70;4.30;;;;;;;;;;5016360;28;20046;-66
2023/06/17 00:40:23;;;;;;;14.15;4.70;;;;;;;;;;5018025;28;20030;-66
2023/06/17 00:42:49;;;;;;;5.57;4.20;;;;;;;;;;5018754;28;20084;-66
2023/06/17 00:45:14;;;;;;;5.47;4.72;;;;;;;;;;5002542;28;20057;-66
2023/06/17 00:47:40;;;;;;;9.70;5.65;;;;;;;;;;5010242;28;20521;-66
2023/06/17 00:50:14;;;;;;;13.82;4.15;;;;;;;;;;5019533;28;20837;-66
2023/06/17 00:52:42;;;;;;;7.70;4.40;;;;;;;;;;5016997;28;20049;-67
2023/06/17 00:55:09;;;;;;;5.95;4.45;;;;;;;;;;5015648;28;20052;-66
2023/06/17 00:57:35;;;;;;;6.85;3.85;;;;;;;;;;5019993;28;20649;-66
2023/06/17 01:00:01;;;;;;;5.25;4.18;;;;;;;;;;5011422;28;20287;-66
2023/06/17 01:02:27;;;;;;;5.45;4.22;;;;;;;;;;5018975;28;20136;-66
2023/06/17 01:04:53;;;;;;;8.15;5.03;;;;;;;;;;5016116;28;20061;-67
2023/06/17 01:07:50;;;;;;;6.40;4.65;;;;;;;;;;5017633;28;20049;-66
2023/06/17 01:10:30;;;;;;;12.98;5.18;;;;;;;;;;4987218;28;20042;-66
2023/06/17 01:12:58;;;;;;;6.82;4.60;;;;;;;;;;5018675;28;20083;-66
2023/06/17 01:15:23;;;;;;;5.38;4.53;;;;;;;;;;5021896;28;20124;-66
2023/06/17 01:17:54;;;;;;;4.20;3.38;;;;;;;;;;5006510;28;20140;-66
2023/06/17 01:20:20;;;;;;;5.20;3.67;;;;;;;;;;4998737;28;20506;-66
2023/06/17 01:22:52;;;;;;;6.45;4.00;;;;;;;;;;5008858;28;20306;-65
2023/06/17 01:25:18;;;;;;;7.65;4.65;;;;;;;;;;5018907;28;20110;-66
2023/06/17 01:27:44;;;;;;;7.68;4.82;;;;;;;;;;5010150;28;20081;-66
2023/06/17 01:30:10;;;;;;;6.60;4.05;;;;;;;;;;5003726;28;20061;-66
2023/06/17 01:32:35;;;;;;;8.15;4.97;;;;;;;;;;5000857;28;20178;-66
2023/06/17 01:35:15;;;;;;;6.18;4.68;;;;;;;;;;4996728;28;20034;-66
2023/06/17 01:37:53;;;;;;;5.95;4.47;;;;;;;;;;5013086;28;20041;-66
2023/06/17 01:40:21;;;;;;;5.20;4.38;;;;;;;;;;5015206;28;20034;-66
2023/06/17 01:42:50;;;;;;;5.38;4.30;;;;;;;;;;5015438;28;20041;-65
2023/06/17 01:45:17;;;;;;;5.78;4.75;;;;;;;;;;5018778;28;20678;-65
2023/06/17 01:47:43;;;;;;;4.82;4.20;;;;;;;;;;5006259;28;20076;-66
2023/06/17 01:50:09;;;;;;;5.45;4.38;;;;;;;;;;5003956;28;20083;-66
2023/06/17 01:52:34;;;;;;;5.32;4.60;;;;;;;;;;5017270;28;20029;-67
2023/06/17 01:55:00;;;;;;;9.27;5.03;;;;;;;;;;5015988;28;20037;-66
2023/06/17 01:57:26;;;;;;;10.60;5.10;;;;;;;;;;5016191;28;20037;-67
2023/06/17 01:59:53;;;;;;;5.97;4.78;;;;;;;;;;5015950;28;20033;-67
2023/06/17 02:02:18;;;;;;;7.15;4.47;;;;;;;;;;5004533;28;20132;-67
2023/06/17 02:04:44;;;;;;;7.57;4.80;;;;;;;;;;5020300;28;20117;-66
2023/06/17 02:07:10;;;;;;;6.68;5.55;;;;;;;;;;5020789;28;20052;-66
2023/06/17 02:09:37;;;;;;;7.25;5.28;;;;;;;;;;5018519;28;20079;-66
2023/06/17 02:12:03;;;;;;;6.60;5.47;;;;;;;;;;4991569;28;20386;-67
2023/06/17 02:14:30;;;;;;;4.40;2.80;;;;;;;;;;5014816;28;20044;-67
2023/06/17 02:16:56;;;;;;;6.97;4.85;;;;;;;;;;5002446;28;20038;-67
2023/06/17 02:19:22;;;;;;;7.20;5.53;;;;;;;;;;5014700;28;20063;-68
2023/06/17 02:21:48;;;;;;;8.45;4.93;;;;;;;;;;5016900;28;20038;-68
2023/06/17 02:24:14;;;;;;;6.05;4.82;;;;;;;;;;5019611;28;20040;-67
2023/06/17 02:26:40;;;;;;;5.90;4.90;;;;;;;;;;5015640;28;20080;-67
2023/06/17 02:29:06;;;;;;;7.88;5.15;;;;;;;;;;5013865;28;20037;-67
2023/06/17 02:31:32;;;;;;;5.93;4.53;;;;;;;;;;5013140;28;20045;-66
2023/06/17 02:33:58;;;;;;;6.18;4.68;;;;;;;;;;5012169;28;20042;-67
2023/06/17 02:36:23;;;;;;;9.05;5.53;;;;;;;;;;5011685;28;20038;-68
2023/06/17 02:38:50;;;;;;;7.25;5.20;;;;;;;;;;5015134;28;20061;-68
2023/06/17 02:41:16;;;;;;;8.48;5.45;;;;;;;;;;5014431;28;20041;-67
2023/06/17 02:43:41;;;;;;;5.85;5.25;;;;;;;;;;5005938;28;20051;-68
2023/06/17 02:46:08;;;;;;;6.25;4.97;;;;;;;;;;5015007;28;20056;-67
2023/06/17 02:48:33;;;;;;;7.57;5.50;;;;;;;;;;5016768;28;20033;-67
2023/06/17 02:50:59;;;;;;;6.82;5.38;;;;;;;;;;5018717;28;20037;-67
2023/06/17 02:53:24;;;;;;;6.20;4.95;;;;;;;;;;5016948;28;20037;-67
2023/06/17 02:55:50;;;;;;;7.47;5.35;;;;;;;;;;5013701;28;20061;-67
2023/06/17 02:58:18;;;;;;;6.75;5.25;;;;;;;;;;5006817;28;20079;-67
2023/06/17 03:00:45;;;;;;;8.35;5.57;;;;;;;;;;5000224;28;20395;-67
2023/06/17 03:03:10;;;;;;;6.95;6.03;;;;;;;;;;5000260;28;20513;-68
2023/06/17 03:05:38;;;;;;;8.05;6.13;;;;;;;;;;5015589;28;20072;-68
2023/06/17 03:08:06;;;;;;;8.55;5.88;;;;;;;;;;5013603;28;20061;-67
2023/06/17 03:10:32;;;;;;;7.55;5.60;;;;;;;;;;5013435;28;20044;-67
2023/06/17 03:12:58;;;;;;;8.23;6.30;;;;;;;;;;5013642;28;20080;-68
2023/06/17 03:15:23;;;;;;;9.70;6.32;;;;;;;;;;5014513;28;20080;-67
2023/06/17 03:17:49;;;;;;;8.30;6.90;;;;;;;;;;5014374;28;20060;-67
2023/06/17 03:20:14;;;;;;;6.90;5.70;;;;;;;;;;5020353;28;20037;-69
2023/06/17 03:22:40;;;;;;;8.75;6.35;;;;;;;;;;5013641;28;20698;-67
2023/06/17 03:25:07;;;;;;;7.65;6.10;;;;;;;;;;5008569;28;20083;-67
2023/06/17 03:27:33;;;;;;;6.75;5.43;;;;;;;;;;5009937;28;20728;-67
2023/06/17 03:29:59;;;;;;;7.68;6.53;;;;;;;;;;5001783;28;20562;-67
2023/06/17 03:32:24;;;;;;;9.50;7.30;;;;;;;;;;5013332;28;20041;-68
2023/06/17 03:34:50;;;;;;;9.05;6.65;;;;;;;;;;5014936;28;20033;-67
2023/06/17 03:37:15;;;;;;;10.48;6.88;;;;;;;;;;5020528;28;20338;-67
2023/06/17 03:39:42;;;;;;;7.63;6.18;;;;;;;;;;5003567;28;20033;-68
2023/06/17 03:42:08;;;;;;;7.65;5.55;;;;;;;;;;5011739;28;20029;-68
2023/06/17 03:44:33;;;;;;;8.05;6.75;;;;;;;;;;5019074;28;20044;-68
2023/06/17 03:46:59;;;;;;;7.72;6.35;;;;;;;;;;5016130;28;20041;-67
2023/06/17 03:49:25;;;;;;;8.35;6.32;;;;;;;;;;5013544;28;20103;-67
2023/06/17 03:51:50;;;;;;;7.40;6.30;;;;;;;;;;5017967;28;20037;-67
2023/06/17 03:54:16;;;;;;;8.38;6.38;;;;;;;;;;5009195;28;20029;-67
2023/06/17 03:56:41;;;;;;;8.05;6.60;;;;;;;;;;5017815;28;20116;-68
2023/06/17 03:59:08;;;;;;;8.63;6.60;;;;;;;;;;5015400;28;20449;-67
2023/06/17 04:01:35;;;;;;;7.30;5.95;;;;;;;;;;5012121;28;20042;-68
2023/06/17 04:04:01;;;;;;;7.45;6.30;;;;;;;;;;5021537;28;20033;-67
2023/06/17 04:06:26;;;;;;;10.90;6.43;;;;;;;;;;5017498;28;20407;-67
2023/06/17 04:08:53;;;;;;;7.82;6.88;;;;;;;;;;4995974;28;20073;-67
2023/06/17 04:11:18;;;;;;;7.57;6.00;;;;;;;;;;5017557;28;20026;-68
2023/06/17 04:13:44;;;;;;;6.35;5.53;;;;;;;;;;5019479;28;20089;-68
2023/06/17 04:16:09;;;;;;;8.80;6.45;;;;;;;;;;5023877;28;20041;-67
2023/06/17 04:18:35;;;;;;;11.20;6.55;;;;;;;;;;5015385;28;20102;-67
2023/06/17 04:21:01;;;;;;;7.85;5.95;;;;;;;;;;5008191;28;20041;-68
2023/06/17 04:23:27;;;;;;;7.00;5.60;;;;;;;;;;5018296;28;20037;-68
2023/06/17 04:25:52;;;;;;;7.07;5.70;;;;;;;;;;5018946;28;20128;-68
2023/06/17 04:28:17;;;;;;;7.28;5.90;;;;;;;;;;5020278;28;20041;-68
2023/06/17 04:30:47;;;;;;;6.85;5.47;;;;;;;;;;5016966;28;20064;-68
2023/06/17 04:33:14;;;;;;;6.88;5.55;;;;;;;;;;5016994;28;20045;-68
2023/06/17 04:35:42;;;;;;;6.55;5.07;;;;;;;;;;5006814;28;20021;-68
2023/06/17 04:38:10;;;;;;;8.98;4.93;;;;;;;;;;5015006;28;20048;-68
2023/06/17 04:40:37;;;;;;;5.93;5.28;;;;;;;;;;5017300;28;20060;-68
2023/06/17 04:43:03;;;;;;;8.75;5.07;;;;;;;;;;5016034;28;20533;-68
2023/06/17 04:45:29;;;;;;;9.65;5.40;;;;;;;;;;5006999;28;20546;-67
2023/06/17 04:47:54;;;;;;;7.85;5.13;;;;;;;;;;4994606;28;20097;-68
2023/06/17 04:50:20;;;;;;;6.65;5.95;;;;;;;;;;5003609;28;20044;-67
2023/06/17 04:52:52;;;;;;;6.30;5.20;;;;;;;;;;5017318;28;20437;-67
2023/06/17 04:55:18;;;;;;;6.30;4.65;;;;;;;;;;5018486;28;20054;-68
2023/06/17 04:57:45;;;;;;;8.63;4.90;;;;;;;;;;5002633;28;20124;-66
2023/06/17 05:00:12;;;;;;;7.55;5.43;;;;;;;;;;5003781;28;20038;-66
2023/06/17 05:02:38;;;;;;;6.97;4.50;;;;;;;;;;5008348;28;20040;-67
2023/06/17 05:05:07;;;;;;;6.03;4.65;;;;;;;;;;5018590;28;20233;-67
2023/06/17 05:07:33;;;;;;;6.97;4.75;;;;;;;;;;5015739;28;20071;-66
2023/06/17 05:09:59;;;;;;;5.90;4.78;;;;;;;;;;5007582;28;20053;-66
2023/06/17 05:12:24;;;;;;;6.82;4.68;;;;;;;;;;5013217;28;20032;-67
2023/06/17 05:14:49;;;;;;;9.07;5.22;;;;;;;;;;5011013;28;20041;-67
2023/06/17 05:17:15;;;;;;;6.22;4.25;;;;;;;;;;5008095;28;20052;-67
2023/06/17 05:19:40;;;;;;;6.70;4.63;;;;;;;;;;5016080;28;20059;-68
2023/06/17 05:22:06;;;;;;;5.55;4.97;;;;;;;;;;5013392;28;20124;-68
2023/06/17 05:24:31;;;;;;;6.93;4.65;;;;;;;;;;5014134;28;20049;-68
2023/06/17 05:26:56;;;;;;;6.90;5.65;;;;;;;;;;5018539;28;20065;-68
2023/06/17 05:29:22;;;;;;;6.53;5.03;;;;;;;;;;5008055;28;20431;-67
2023/06/17 05:31:47;;;;;;;6.93;5.00;;;;;;;;;;5013484;28;20088;-67
2023/06/17 05:34:13;;;;;;;6.13;5.03;;;;;;;;;;5015638;28;20132;-67
2023/06/17 05:36:38;;;;;;;7.57;4.18;;;;;;;;;;5016275;28;20044;-68
2023/06/17 05:39:04;;;;;;;7.28;4.95;;;;;;;;;;5004112;28;20099;-67
2023/06/17 05:41:29;;;;;;;4.63;3.90;;;;;;;;;;5010763;28;20655;-67
2023/06/17 05:43:54;;;;;;;6.85;4.93;;;;;;;;;;5007759;28;20513;-68
2023/06/17 05:46:20;;;;;;;6.55;4.88;;;;;;;;;;5013809;28;20057;-66
2023/06/17 05:48:45;;;;;;;7.18;5.20;;;;;;;;;;5014070;28;20041;-67
2023/06/17 05:51:11;;;;;;;6.50;5.32;;;;;;;;;;5016246;28;20098;-67
2023/06/17 05:53:36;;;;;;;7.10;5.03;;;;;;;;;;5015504;28;20131;-68
2023/06/17 05:56:01;;;;;;;7.07;4.78;;;;;;;;;;5019000;28;20199;-66
2023/06/17 05:58:27;;;;;;;7.03;4.72;;;;;;;;;;5005767;28;20545;-67
2023/06/17 06:00:52;;;;;;;6.40;4.55;;;;;;;;;;5015302;28;20041;-67
2023/06/17 06:03:17;;;;;;;8.32;5.60;;;;;;;;;;5014536;28;20068;-67
2023/06/17 06:05:43;;;;;;;8.18;5.30;;;;;;;;;;5015758;28;20568;-67
2023/06/17 06:08:08;;;;;;;6.55;5.30;;;;;;;;;;5014888;28;20045;-66
2023/06/17 06:10:34;;;;;;;7.28;5.75;;;;;;;;;;5010412;28;20076;-67
2023/06/17 06:12:59;;;;;;;5.75;4.82;;;;;;;;;;5003752;28;20184;-68
2023/06/17 06:15:25;;;;;;;9.15;5.45;;;;;;;;;;5015181;28;20836;-67
2023/06/17 06:17:51;;;;;;;6.10;4.60;;;;;;;;;;5011487;28;20038;-68
2023/06/17 06:20:17;;;;;;;7.35;5.82;;;;;;;;;;5013249;28;20048;-68
2023/06/17 06:22:42;;;;;;;5.18;4.10;;;;;;;;;;5012197;28;20056;-67
2023/06/17 06:25:08;;;;;;;7.35;5.38;;;;;;;;;;5014575;28;20037;-67
2023/06/17 06:27:33;;;;;;;6.80;5.60;;;;;;;;;;5004620;28;20041;-66
2023/06/17 06:29:59;;;;;;;5.28;4.55;;;;;;;;;;5014902;28;20037;-66
2023/06/17 06:32:24;;;;;;;7.43;5.72;;;;;;;;;;5012751;28;20041;-66
2023/06/17 06:34:50;;;;;;;6.88;5.50;;;;;;;;;;5011718;28;20034;-66
2023/06/17 06:37:15;;;;;;;7.15;5.53;;;;;;;;;;5015711;28;20171;-66
2023/06/17 06:39:42;;;;;;;8.00;5.55;;;;;;;;;;5016392;28;20539;-66
2023/06/17 06:42:08;;;;;;;5.50;4.47;;;;;;;;;;5002734;28;20175;-67
2023/06/17 06:44:34;;;;;;;4.88;4.20;;;;;;;;;;4983090;28;20030;-66
2023/06/17 06:47:00;;;;;;;5.43;4.20;;;;;;;;;;5001333;28;20458;-66
2023/06/17 06:49:25;;;;;;;8.00;6.03;;;;;;;;;;4984622;28;20074;-66
2023/06/17 06:51:51;;;;;;;7.40;5.35;;;;;;;;;;4983676;28;20554;-66
2023/06/17 06:54:16;;;;;;;6.50;4.78;;;;;;;;;;4977792;28;20185;-66
2023/06/17 06:56:41;;;;;;;8.45;5.25;;;;;;;;;;4983779;28;20038;-67
2023/06/17 06:59:08;;;;;;;6.32;4.55;;;;;;;;;;4984499;28;20442;-66
2023/06/17 07:01:33;;;;;;;7.30;5.18;;;;;;;;;;4990534;28;20048;-66
2023/06/17 07:03:59;;;;;;;6.18;5.53;;;;;;;;;;4986638;28;20038;-66
2023/06/17 07:06:24;;;;;;;9.38;6.35;;;;;;;;;;4987325;28;20054;-66
2023/06/17 07:08:50;;;;;;;6.25;5.45;;;;;;;;;;4973466;28;20034;-66
2023/06/17 07:11:15;;;;;;;6.88;5.75;;;;;;;;;;4975077;28;20037;-66
2023/06/17 07:13:41;;;;;;;8.73;6.65;;;;;;;;;;4977478;28;20163;-66
2023/06/17 07:16:06;;;;;;;6.80;6.10;;;;;;;;;;4957020;28;20038;-66
2023/06/17 07:18:32;;;;;;;6.90;5.20;;;;;;;;;;4983799;28;20042;-66
2023/06/17 07:20:57;;;;;;;7.53;5.75;;;;;;;;;;4982633;28;20045;-66
2023/06/17 07:23:26;;;;;;;6.97;5.72;;;;;;;;;;4978194;28;20415;-66
2023/06/17 07:25:51;;;;;;;6.68;5.85;;;;;;;;;;4983627;28;20540;-66
2023/06/17 07:28:17;;;;;;;8.68;5.88;;;;;;;;;;4983599;28;20046;-66
2023/06/17 07:30:42;;;;;;;8.70;5.68;;;;;;;;;;4983410;28;20042;-66
2023/06/17 07:33:08;;;;;;;7.70;5.72;;;;;;;;;;4971639;28;20108;-67
2023/06/17 07:35:33;;;;;;;5.88;4.90;;;;;;;;;;4980717;28;20152;-68
2023/06/17 07:37:59;;;;;;;6.72;5.60;;;;;;;;;;4974573;28;20171;-69
2023/06/17 07:40:24;;;;;;;7.15;5.82;;;;;;;;;;4976129;28;20066;-67
2023/06/17 07:42:49;;;;;;;7.25;5.70;;;;;;;;;;4977194;28;20046;-66
2023/06/17 07:45:15;;;;;;;8.02;5.80;;;;;;;;;;4977359;28;20149;-67
2023/06/17 07:47:40;;;;;;;6.30;5.00;;;;;;;;;;4984202;28;20181;-66
2023/06/17 07:50:08;;;;;;;11.85;5.78;;;;;;;;;;4990544;28;20038;-68
2023/06/17 07:52:35;;;;;;;7.55;5.97;;;;;;;;;;4980447;28;20080;-69
2023/06/17 07:55:01;;;;;;;8.70;5.43;;;;;;;;;;4956167;28;20030;-67
2023/06/17 07:57:26;;;;;;;6.20;4.90;;;;;;;;;;4984990;28;20037;-68
2023/06/17 07:59:52;;;;;;;5.40;4.25;;;;;;;;;;4988896;28;20061;-67
2023/06/17 08:02:17;;;;;;;7.80;6.45;;;;;;;;;;4994576;28;20038;-67
2023/06/17 08:04:44;;;;;;;7.78;5.75;;;;;;;;;;4977603;28;20108;-67
2023/06/17 08:07:11;;;;;;;6.43;5.25;;;;;;;;;;4983504;28;20081;-68
2023/06/17 08:09:36;;;;;;;7.35;5.40;;;;;;;;;;4973077;28;20473;-67
2023/06/17 08:12:02;;;;;;;5.65;5.00;;;;;;;;;;4992460;28;20045;-68
2023/06/17 08:14:27;;;;;;;7.05;4.90;;;;;;;;;;4995903;28;20042;-68
2023/06/17 08:16:53;;;;;;;7.70;5.32;;;;;;;;;;4993387;28;20053;-65
2023/06/17 08:19:18;;;;;;;5.90;5.28;;;;;;;;;;5001905;28;21336;-67
2023/06/17 08:21:45;;;;;;;8.85;5.13;;;;;;;;;;5010789;28;20093;-66
2023/06/17 08:24:24;;;;;;;6.43;4.88;;;;;;;;;;5012268;28;20515;-67
2023/06/17 08:26:50;;;;;;;6.95;5.30;;;;;;;;;;4978900;28;20417;-66
2023/06/17 08:29:16;;;;;;;6.35;5.15;;;;;;;;;;5004401;28;20038;-65
2023/06/17 08:31:43;;;;;;;8.60;4.68;;;;;;;;;;5008413;28;20029;-67
2023/06/17 08:34:09;;;;;;;5.85;5.05;;;;;;;;;;5024681;28;20108;-66
2023/06/17 08:36:34;;;;;;;7.32;5.25;;;;;;;;;;5021398;28;20122;-66
2023/06/17 08:39:00;;;;;;;4.80;4.28;;;;;;;;;;5016093;28;20057;-66
2023/06/17 08:41:27;;;;;;;4.55;3.78;;;;;;;;;;4998155;28;20541;-65
2023/06/17 08:43:56;;;;;;;8.13;5.25;;;;;;;;;;4987107;28;20506;-65
2023/06/17 08:46:23;;;;;;;6.72;5.18;;;;;;;;;;4987103;28;20038;-66
2023/06/17 08:48:49;;;;;;;5.50;4.88;;;;;;;;;;4992704;28;20046;-66
2023/06/17 08:51:14;;;;;;;6.03;3.63;;;;;;;;;;4998407;28;20041;-66
2023/06/17 08:53:43;;;;;;;7.25;4.63;;;;;;;;;;5007962;28;20108;-66
2023/06/17 08:56:12;;;;;;;6.40;5.20;;;;;;;;;;4992930;28;20521;-66
2023/06/17 08:58:37;;;;;;;4.40;3.70;;;;;;;;;;4980474;28;20038;-66
2023/06/17 09:01:06;;;;;;;7.03;5.28;;;;;;;;;;4997025;28;20118;-66
2023/06/17 09:03:37;;;;;;;7.88;5.00;;;;;;;;;;5005301;28;20033;-66
2023/06/17 09:06:27;;;;;;;7.60;5.53;;;;;;;;;;5006128;28;20567;-66
2023/06/17 09:08:54;;;;;;;7.30;4.90;;;;;;;;;;4990025;28;20054;-66
2023/06/17 09:11:25;;;;;;;8.52;5.05;;;;;;;;;;4991349;28;20058;-66
2023/06/17 09:13:54;;;;;;;7.70;5.35;;;;;;;;;;5021343;28;20049;-66
2023/06/17 09:16:26;;;;;;;6.35;5.53;;;;;;;;;;5024613;28;20066;-66
2023/06/17 09:19:01;;;;;;;5.22;4.18;;;;;;;;;;5026670;28;20033;-66
2023/06/17 09:21:27;;;;;;;7.25;4.93;;;;;;;;;;4989895;28;20072;-66
2023/06/17 09:23:57;;;;;;;5.18;4.68;;;;;;;;;;5004297;28;20124;-66
2023/06/17 09:26:27;;;;;;;6.30;5.13;;;;;;;;;;5009386;28;20115;-66
2023/06/17 09:28:53;;;;;;;9.30;5.25;;;;;;;;;;5008328;28;20132;-65
2023/06/17 09:31:18;;;;;;;6.13;5.28;;;;;;;;;;5001221;28;20589;-66
2023/06/17 09:33:45;;;;;;;5.68;5.07;;;;;;;;;;4985017;28;20070;-65
2023/06/17 09:36:10;;;;;;;5.93;4.72;;;;;;;;;;5002393;28;20083;-65
2023/06/17 09:38:37;;;;;;;6.78;4.85;;;;;;;;;;5014098;28;20041;-66
2023/06/17 09:41:04;;;;;;;5.95;5.10;;;;;;;;;;5014834;28;20080;-66
2023/06/17 09:43:30;;;;;;;6.18;4.45;;;;;;;;;;5013991;28;20037;-66
2023/06/17 09:46:00;;;;;;;6.22;4.28;;;;;;;;;;5015334;28;20514;-66
2023/06/17 09:48:33;;;;;;;6.88;4.45;;;;;;;;;;5006200;28;20434;-66
2023/06/17 09:50:59;;;;;;;5.45;4.15;;;;;;;;;;5001125;28;20046;-66
2023/06/17 09:53:29;;;;;;;5.63;5.03;;;;;;;;;;5012020;28;20045;-66
2023/06/17 09:55:57;;;;;;;6.60;4.78;;;;;;;;;;5020941;28;20426;-66
2023/06/17 09:58:26;;;;;;;6.65;4.68;;;;;;;;;;5024057;28;20453;-66
2023/06/17 10:00:54;;;;;;;6.47;4.82;;;;;;;;;;5014180;28;20045;-66
2023/06/17 10:03:20;;;;;;;6.38;5.28;;;;;;;;;;5003794;28;20040;-66
2023/06/17 10:05:55;;;;;;;9.25;5.25;;;;;;;;;;5014090;28;20075;-66
2023/06/17 10:08:21;;;;;;;6.63;5.13;;;;;;;;;;5025931;28;20063;-66
2023/06/17 10:10:48;;;;;;;5.10;4.47;;;;;;;;;;5029510;28;20056;-66
2023/06/17 10:13:18;;;;;;;6.60;4.65;;;;;;;;;;5015897;28;20124;-66
2023/06/17 10:15:46;;;;;;;6.35;4.75;;;;;;;;;;5004328;28;20040;-66
2023/06/17 10:18:12;;;;;;;9.13;5.10;;;;;;;;;;5012568;28;20037;-66
2023/06/17 10:20:39;;;;;;;5.97;4.68;;;;;;;;;;5016480;28;20032;-66
2023/06/17 10:23:04;;;;;;;6.47;5.05;;;;;;;;;;5014696;28;20041;-67
2023/06/17 10:25:30;;;;;;;5.97;4.30;;;;;;;;;;5010974;28;20045;-66
2023/06/17 10:27:55;;;;;;;7.20;5.22;;;;;;;;;;5013211;28;20092;-66
2023/06/17 10:30:28;;;;;;;5.00;4.50;;;;;;;;;;5013044;28;21186;-66
2023/06/17 10:33:01;;;;;;;5.05;4.22;;;;;;;;;;5017261;28;20552;-66
2023/06/17 10:35:39;;;;;;;6.28;5.15;;;;;;;;;;5014849;28;20037;-66
2023/06/17 10:38:06;;;;;;;5.50;4.40;;;;;;;;;;5016603;28;20123;-66
2023/06/17 10:40:35;;;;;;;5.55;4.55;;;;;;;;;;5013298;28;20033;-67
2023/06/17 10:43:01;;;;;;;4.60;3.95;;;;;;;;;;5026266;28;20053;-65
2023/06/17 10:45:31;;;;;;;5.22;4.22;;;;;;;;;;5023133;28;20045;-68
2023/06/17 10:48:36;;;;;;;5.47;3.70;;;;;;;;;;5016948;28;20037;-67
2023/06/17 10:51:01;;;;;;;4.63;3.92;;;;;;;;;;4954879;28;20594;-67
2023/06/17 10:53:28;;;;;;;5.38;3.85;;;;;;;;;;4946344;28;20042;-69
2023/06/17 10:55:53;;;;;;;6.35;3.80;;;;;;;;;;4986660;28;20120;-68
2023/06/17 10:58:19;;;;;;;8.45;4.82;;;;;;;;;;5016363;28;21252;-67
2023/06/17 11:00:45;;;;;;;5.40;4.40;;;;;;;;;;5018040;28;20045;-68
2023/06/17 11:03:10;;;;;;;7.43;5.20;;;;;;;;;;5010330;28;20045;-68
2023/06/17 11:05:36;;;;;;;5.72;4.70;;;;;;;;;;4991181;28;20038;-69
2023/06/17 11:08:03;;;;;;;4.75;3.58;;;;;;;;;;5024172;28;20038;-69
2023/06/17 11:10:28;;;;;;;5.05;3.97;;;;;;;;;;4997389;28;20034;-69
2023/06/17 11:12:54;;;;;;;4.90;4.35;;;;;;;;;;5013488;28;20059;-67
2023/06/17 11:15:21;;;;;;;6.57;4.60;;;;;;;;;;5027192;28;20047;-68
2023/06/17 11:17:46;;;;;;;7.15;5.35;;;;;;;;;;5006597;28;20045;-68
2023/06/17 11:20:12;;;;;;;5.85;4.70;;;;;;;;;;5025310;28;20037;-65
2023/06/17 11:22:38;;;;;;;5.78;4.28;;;;;;;;;;5013446;28;20399;-69
2023/06/17 11:25:04;;;;;;;6.72;5.63;;;;;;;;;;5017057;28;20037;-70
2023/06/17 11:27:30;;;;;;;6.03;4.50;;;;;;;;;;5016421;28;20758;-69
2023/06/17 11:29:56;;;;;;;5.25;4.75;;;;;;;;;;5017069;28;20043;-66
2023/06/17 11:32:22;;;;;;;4.88;4.38;;;;;;;;;;5004456;28;20046;-69
2023/06/17 11:34:50;;;;;;;7.90;4.57;;;;;;;;;;5013569;28;20056;-68
2023/06/17 11:37:16;;;;;;;5.22;4.50;;;;;;;;;;5001431;28;20530;-69
2023/06/17 11:39:42;;;;;;;5.30;4.20;;;;;;;;;;4996471;28;20670;-68
2023/06/17 11:42:08;;;;;;;6.05;5.45;;;;;;;;;;5004351;28;20041;-68
2023/06/17 11:44:35;;;;;;;6.38;4.80;;;;;;;;;;5009600;28;20045;-68
2023/06/17 11:47:05;;;;;;;6.18;5.43;;;;;;;;;;5000920;28;20034;-68
2023/06/17 11:49:31;;;;;;;5.85;4.60;;;;;;;;;;5014249;28;20863;-68
2023/06/17 11:52:06;;;;;;;7.10;5.30;;;;;;;;;;5021014;28;20083;-68
2023/06/17 11:54:32;;;;;;;7.20;5.05;;;;;;;;;;5013013;28;20046;-68
2023/06/17 11:56:57;;;;;;;5.68;5.10;;;;;;;;;;5008173;28;20045;-68
2023/06/17 11:59:23;;;;;;;6.18;4.60;;;;;;;;;;4992251;28;20066;-68
2023/06/17 12:01:48;;;;;;;6.03;5.28;;;;;;;;;;4997472;28;20553;-68
2023/06/17 12:04:14;;;;;;;5.47;4.68;;;;;;;;;;4998533;28;20033;-68
2023/06/17 12:06:41;;;;;;;6.72;5.43;;;;;;;;;;4998441;28;20050;-68
2023/06/17 12:09:08;;;;;;;6.40;4.93;;;;;;;;;;5005151;28;20034;-68
2023/06/17 12:11:38;;;;;;;6.03;4.60;;;;;;;;;;4999182;28;20128;-68
2023/06/17 12:14:07;;;;;;;5.90;4.22;;;;;;;;;;5005844;28;20060;-68
2023/06/17 12:16:34;;;;;;;6.65;4.95;;;;;;;;;;5000312;28;20522;-67
2023/06/17 12:19:09;;;;;;;5.95;4.70;;;;;;;;;;4988011;28;20117;-67
2023/06/17 12:21:36;;;;;;;5.68;4.43;;;;;;;;;;4986907;28;20120;-67
2023/06/17 12:24:03;;;;;;;5.95;4.65;;;;;;;;;;4991566;28;20038;-67
2023/06/17 12:26:29;;;;;;;5.53;4.05;;;;;;;;;;4992870;28;20118;-67
2023/06/17 12:28:55;;;;;;;5.05;4.38;;;;;;;;;;4992163;28;20740;-67
2023/06/17 12:31:21;;;;;;;4.57;4.07;;;;;;;;;;5001759;28;20054;-67
2023/06/17 12:33:47;;;;;;;5.47;4.97;;;;;;;;;;4978615;28;20125;-67
2023/06/17 12:36:13;;;;;;;6.43;4.95;;;;;;;;;;5009821;28;20129;-67
2023/06/17 12:38:39;;;;;;;5.88;4.18;;;;;;;;;;4971439;28;20430;-67
2023/06/17 12:41:05;;;;;;;5.55;4.78;;;;;;;;;;5002985;28;20040;-67
2023/06/17 12:43:31;;;;;;;4.85;4.25;;;;;;;;;;4997642;28;20030;-67
2023/06/17 12:46:00;;;;;;;5.60;4.35;;;;;;;;;;4984904;28;20049;-68
2023/06/17 12:48:27;;;;;;;5.17;4.67;;;;;;;;;;4995923;28;20060;-68
2023/06/17 12:50:53;;;;;;;6.03;5.18;;;;;;;;;;4997852;28;20038;-67
2023/06/17 12:53:19;;;;;;;5.30;4.30;;;;;;;;;;4989544;28;20047;-68
2023/06/17 12:55:44;;;;;;;6.90;5.15;;;;;;;;;;4998793;28;20034;-67
2023/06/17 12:58:10;;;;;;;6.25;5.10;;;;;;;;;;4997279;28;20037;-67
2023/06/17 13:00:36;;;;;;;5.50;4.57;;;;;;;;;;4996546;28;20132;-67
2023/06/17 13:03:02;;;;;;;5.30;4.80;;;;;;;;;;4999159;28;20545;-67
2023/06/17 13:05:28;;;;;;;8.75;5.07;;;;;;;;;;4996845;28;20038;-67
2023/06/17 13:07:53;;;;;;;5.63;5.00;;;;;;;;;;4986128;28;20046;-67
2023/06/17 13:10:19;;;;;;;8.13;4.45;;;;;;;;;;4998697;28;20711;-67
2023/06/17 13:12:44;;;;;;;4.32;3.90;;;;;;;;;;5007003;28;20039;-67
2023/06/17 13:15:10;;;;;;;5.65;4.47;;;;;;;;;;5022710;28;20286;-67
2023/06/17 13:17:35;;;;;;;6.07;4.30;;;;;;;;;;5013252;28;20038;-69
2023/06/17 13:20:03;;;;;;;6.40;4.75;;;;;;;;;;5019724;28;20037;-68
2023/06/17 13:22:31;;;;;;;5.57;5.03;;;;;;;;;;5017326;28;20530;-68
2023/06/17 13:24:59;;;;;;;8.73;4.72;;;;;;;;;;5016884;28;20410;-68
2023/06/17 13:27:25;;;;;;;7.63;4.72;;;;;;;;;;5017675;28;20040;-68
2023/06/17 13:29:51;;;;;;;4.93;4.32;;;;;;;;;;5025259;28;20047;-69
2023/06/17 13:32:16;;;;;;;5.22;4.05;;;;;;;;;;5008378;28;20041;-68
2023/06/17 13:34:42;;;;;;;6.20;3.47;;;;;;;;;;4987156;28;20388;-68
2023/06/17 13:37:08;;;;;;;4.50;4.00;;;;;;;;;;4992332;28;20088;-69
2023/06/17 13:39:34;;;;;;;5.18;4.60;;;;;;;;;;5008691;28;20124;-68
2023/06/17 13:42:02;;;;;;;4.95;3.90;;;;;;;;;;4992632;28;20161;-68
2023/06/17 13:44:27;;;;;;;5.07;4.13;;;;;;;;;;4996345;28;20034;-68
2023/06/17 13:46:52;;;;;;;5.28;4.28;;;;;;;;;;4997857;28;20696;-68
2023/06/17 13:49:18;;;;;;;5.30;4.10;;;;;;;;;;4997359;28;20146;-68
2023/06/17 13:51:45;;;;;;;5.97;4.30;;;;;;;;;;5007314;28;20566;-68
2023/06/17 13:54:10;;;;;;;6.18;4.63;;;;;;;;;;5004673;28;20425;-68
2023/06/17 13:56:35;;;;;;;5.60;4.60;;;;;;;;;;4994592;28;20169;-68
2023/06/17 13:59:01;;;;;;;5.78;4.20;;;;;;;;;;5000140;28;20061;-68
2023/06/17 14:01:26;;;;;;;4.30;3.50;;;;;;;;;;5001953;28;20033;-68
2023/06/17 14:03:52;;;;;;;5.10;4.60;;;;;;;;;;5004818;28;20038;-68
2023/06/17 14:06:19;;;;;;;5.53;4.30;;;;;;;;;;4996968;28;20056;-68
2023/06/17 14:08:45;;;;;;;10.32;4.65;;;;;;;;;;4996655;28;20034;-68
2023/06/17 14:11:11;;;;;;;7.05;4.15;;;;;;;;;;5005156;28;20070;-68
2023/06/17 14:13:36;;;;;;;5.07;4.18;;;;;;;;;;5006392;28;20124;-68
2023/06/17 14:16:01;;;;;;;5.20;3.97;;;;;;;;;;5000113;28;21091;-68
2023/06/17 14:18:27;;;;;;;5.82;4.80;;;;;;;;;;4995727;28;20129;-68
2023/06/17 14:20:52;;;;;;;5.95;4.25;;;;;;;;;;5004540;28;20551;-68
2023/06/17 14:23:18;;;;;;;5.18;4.68;;;;;;;;;;5000297;28;20034;-68
2023/06/17 14:25:43;;;;;;;7.55;4.50;;;;;;;;;;5013781;28;20041;-68
2023/06/17 14:28:09;;;;;;;5.05;4.55;;;;;;;;;;4988893;28;20048;-68
2023/06/17 14:30:34;;;;;;;5.45;4.78;;;;;;;;;;4983491;28;20037;-68
2023/06/17 14:33:00;;;;;;;6.70;4.47;;;;;;;;;;5000694;28;20076;-68
2023/06/17 14:35:26;;;;;;;7.72;4.18;;;;;;;;;;5012254;28;20044;-68
2023/06/17 14:37:52;;;;;;;5.10;4.20;;;;;;;;;;5006946;28;20025;-68
2023/06/17 14:40:17;;;;;;;4.97;4.22;;;;;;;;;;4993069;28;20053;-68